ESOK 200520Z 35007KT CAVOK 12/11 Q1011